Pagrindinis puslapis
METAR-TAF:

METAR-TAF

Oro uostai :

Grosetas, Italija

platuma: 42-45N, ilguma: 011-04E, Aukštis: 5 m

Dabartinis oras

Ataskaita buvo paskelbta 40 minutes, ne 19:55 UTC
Vėjas 4 kt iš Pietų/Pietryčių
Temperatūra 10°C
Drėgmė 93%
Slėgis 1021 hPa
Matomumas 10 km arba daugiau
nėra debesų žemiau 1500 m ir nėra kamuolinių lietaus debesų

METAR: LIRS 091955Z 15004KT CAVOK 10/09 Q1021 RMK SKC VIS MIN 9999 WIND THR03 15003KT WIND THR21 15003KT BLU

Laikas: 22:35 (20:35 UTC)

Prognozė

Ataskaita buvo paskelbta 35 minutes, ne 20:00 UTC
Prognozė galioja nuo 09 metu 21 UTC su 10 metu 06 UTC
Vėjas 3 kt nuo kintamojo kryptimis
Matomumas 10 km arba daugiau
nėra debesų žemiau 1500 m ir nėra kamuolinių lietaus debesų

TAF: LIRS 092000Z 0921/1006 VRB03KT CAVOK

Orai ataskaitas ir orų prognozės (METAR, TAF).

turimą stotys yra geltonos ir raudonos taškus žemėlapyje.

Perkelti pele per norėdami pamatyti stoties vardą.

Tada spustelėkite, norėdami matyti oro stebėjimo ir prognozės.

Norėdami pakeisti žemėlapį: spustelėkite ant žalios mygtukų su juodo kryžiaus žemyn,; žalią mygtuką su brūkšneliu, jei norite nutolinti; arba žalių rodyklių gretimoms žemėlapius.


METAR-TAF: